METAR EPSY 081100Z VRB04KT CAVOK 30/16 Q1023=